Time;durP1;ratioP1;P1;durP2;ratioP2;P2;SDS_P1;SDS_P2;PMS_P1;PMS_P2;Temp;Humidity;BMP_temperature;BMP_pressure;BME280_temperature;BME280_humidity;BME280_pressure;Samples;Min_cycle;Max_cycle;Signal;HPM_P1;HPM_P2
2022/11/02 00:01:28;;;;;;;5.27;2.73;;;12.10;1.00;;;;;;5053555;28;20636;-72
2022/11/02 00:03:53;;;;;;;2.50;1.83;;;12.00;1.00;;;;;;5051189;28;20938;-73
2022/11/02 00:06:19;;;;;;;4.30;1.93;;;12.00;1.00;;;;;;5053499;28;20411;-73
2022/11/02 00:08:45;;;;;;;9.07;2.70;;;12.00;1.00;;;;;;5052450;28;20186;-74
2022/11/02 00:11:11;;;;;;;2.70;2.43;;;12.00;1.00;;;;;;5052608;28;20301;-74
2022/11/02 00:13:37;;;;;;;2.70;2.03;;;12.00;1.00;;;;;;5052775;28;20392;-80
2022/11/02 00:16:05;;;;;;;4.70;2.37;;;12.00;1.00;;;;;;5052997;28;20191;-74
2022/11/02 00:18:33;;;;;;;2.10;1.50;;;12.00;1.00;;;;;;5051954;28;20407;-73
2022/11/02 00:21:00;;;;;;;8.33;3.10;;;12.00;1.00;;;;;;5053173;28;20379;-75
2022/11/02 00:23:26;;;;;;;5.83;2.00;;;12.00;1.00;;;;;;5052885;28;20387;-75
2022/11/02 00:25:53;;;;;;;3.20;1.93;;;12.00;1.00;;;;;;5052531;28;20400;-73
2022/11/02 00:28:19;;;;;;;7.57;2.13;;;12.00;1.00;;;;;;5052262;28;20262;-72
2022/11/02 00:30:44;;;;;;;6.27;2.57;;;12.00;1.00;;;;;;5068281;28;20844;-73
2022/11/02 00:33:11;;;;;;;3.97;2.40;;;12.00;1.00;;;;;;5056088;28;20179;-75
2022/11/02 00:35:37;;;;;;;4.23;2.10;;;12.00;1.00;;;;;;5055023;28;20614;-73
2022/11/02 00:38:03;;;;;;;3.00;2.10;;;12.00;1.00;;;;;;5056288;28;20396;-73
2022/11/02 00:40:29;;;;;;;5.83;2.37;;;12.00;1.00;;;;;;5057087;28;20459;-72
2022/11/02 00:42:55;;;;;;;8.63;2.47;;;11.90;1.00;;;;;;5056974;28;20475;-73
2022/11/02 00:45:21;;;;;;;6.23;2.17;;;11.90;1.00;;;;;;5055831;28;20274;-74
2022/11/02 00:47:47;;;;;;;7.00;2.30;;;11.90;1.00;;;;;;5071542;28;20175;-73
2022/11/02 00:50:13;;;;;;;4.13;2.10;;;11.80;1.00;;;;;;5056914;28;20425;-73
2022/11/02 00:52:39;;;;;;;6.97;2.10;;;11.80;1.00;;;;;;5056453;28;20380;-73
2022/11/02 00:55:07;;;;;;;2.50;2.30;;;11.80;1.00;;;;;;5055830;28;20155;-73
2022/11/02 00:57:33;;;;;;;2.43;1.87;;;11.80;1.00;;;;;;5055821;28;20411;-74
2022/11/02 00:59:59;;;;;;;2.60;1.90;;;11.80;1.00;;;;;;5056685;28;20376;-74
2022/11/02 01:02:25;;;;;;;8.07;1.90;;;11.80;1.00;;;;;;5056461;28;20384;-74
2022/11/02 01:04:51;;;;;;;5.00;2.80;;;11.70;1.00;;;;;;5071349;28;20278;-72
2022/11/02 01:07:17;;;;;;;6.63;2.20;;;11.80;1.00;;;;;;5055471;28;20503;-73
2022/11/02 01:09:42;;;;;;;7.60;2.30;;;11.70;1.00;;;;;;5055931;28;20191;-74
2022/11/02 01:12:08;;;;;;;8.73;2.00;;;11.80;1.00;;;;;;5056579;28;20174;-74
2022/11/02 01:14:34;;;;;;;3.97;2.70;;;11.80;1.00;;;;;;5070943;28;20179;-74
2022/11/02 01:16:59;;;;;;;3.87;2.20;;;11.70;1.00;;;;;;5054399;28;20201;-74
2022/11/02 01:19:25;;;;;;;5.13;2.43;;;11.80;1.00;;;;;;5056016;28;20181;-73
2022/11/02 01:21:51;;;;;;;7.57;2.20;;;11.70;1.00;;;;;;5056214;28;20178;-73
2022/11/02 01:24:16;;;;;;;7.53;2.40;;;11.70;1.00;;;;;;5054322;28;20260;-73
2022/11/02 01:26:42;;;;;;;5.57;1.73;;;11.70;1.00;;;;;;5053885;28;20540;-72
2022/11/02 01:29:08;;;;;;;7.17;2.70;;;11.70;1.00;;;;;;5055148;28;20199;-73
2022/11/02 01:31:33;;;;;;;3.43;1.67;;;11.70;1.00;;;;;;5055946;28;20253;-73
2022/11/02 01:33:59;;;;;;;5.53;2.43;;;11.70;1.00;;;;;;5055095;28;20213;-72
2022/11/02 01:36:25;;;;;;;5.00;2.10;;;11.70;1.00;;;;;;5055034;28;20276;-72
2022/11/02 01:38:51;;;;;;;4.17;2.10;;;11.70;1.00;;;;;;5055222;28;20187;-72
2022/11/02 01:41:17;;;;;;;2.63;2.00;;;11.70;1.00;;;;;;5055829;28;20213;-73
2022/11/02 01:43:45;;;;;;;4.67;3.30;;;11.70;1.00;;;;;;5054112;28;20372;-74
2022/11/02 01:46:10;;;;;;;4.83;2.50;;;11.70;1.00;;;;;;5055314;28;20400;-72
2022/11/02 01:48:44;;;;;;;8.03;3.40;;;11.70;1.00;;;;;;5054190;28;20415;-72
2022/11/02 01:51:20;;;;;;;6.10;2.10;;;11.70;1.00;;;;;;5054364;28;20182;-73
2022/11/02 01:53:53;;;;;;;6.33;2.47;;;11.70;1.00;;;;;;5054820;28;20403;-73
2022/11/02 01:56:21;;;;;;;8.50;2.30;;;11.70;1.00;;;;;;5052807;28;20996;-74
2022/11/02 01:58:53;;;;;;;5.63;2.40;;;11.70;1.00;;;;;;5054138;28;20502;-72
2022/11/02 02:01:19;;;;;;;2.07;1.80;;;11.70;1.00;;;;;;5055666;28;20396;-72
2022/11/02 02:03:47;;;;;;;3.60;1.80;;;11.70;1.00;;;;;;5054027;28;21305;-74
2022/11/02 02:06:14;;;;;;;3.57;2.20;;;11.70;1.00;;;;;;5054682;28;20427;-73
2022/11/02 02:08:47;;;;;;;3.73;1.80;;;11.80;1.00;;;;;;5053233;28;20765;-74
2022/11/02 02:11:32;;;;;;;3.60;1.90;;;11.80;1.00;;;;;;5055436;28;20384;-73
2022/11/02 02:14:05;;;;;;;3.00;1.80;;;11.90;1.00;;;;;;5053337;28;20384;-74
2022/11/02 02:16:49;;;;;;;6.90;1.93;;;11.90;1.00;;;;;;5035817;28;20774;-73
2022/11/02 02:19:33;;;;;;;12.53;2.83;;;11.90;1.00;;;;;;5051736;28;20407;-74
2022/11/02 02:22:05;;;;;;;4.97;2.33;;;12.00;1.00;;;;;;5055001;28;20376;-73
2022/11/02 02:24:52;;;;;;;10.17;2.40;;;12.00;1.00;;;;;;5054095;28;20376;-72
2022/11/02 02:27:47;;;;;;;3.77;2.00;;;12.00;1.00;;;;;;5054001;28;20440;-73
2022/11/02 02:30:15;;;;;;;2.80;1.90;;;12.00;1.00;;;;;;5013518;28;20460;-74
2022/11/02 02:32:59;;;;;;;9.77;3.77;;;12.00;1.00;;;;;;5054740;28;20475;-72
2022/11/02 02:35:27;;;;;;;2.63;1.80;;;12.00;1.00;;;;;;5053191;28;20428;-72
2022/11/02 02:38:00;;;;;;;4.27;2.07;;;12.00;1.00;;;;;;5051880;28;20836;-74
2022/11/02 02:40:49;;;;;;;6.63;1.93;;;12.00;1.00;;;;;;5054641;28;20416;-73
2022/11/02 02:43:20;;;;;;;7.30;2.70;;;12.10;1.00;;;;;;5053784;28;20411;-73
2022/11/02 02:45:57;;;;;;;4.50;2.30;;;12.10;1.00;;;;;;5053839;28;20454;-72
2022/11/02 02:48:24;;;;;;;5.57;1.90;;;12.10;1.00;;;;;;5053583;28;20410;-73
2022/11/02 02:51:00;;;;;;;6.30;2.10;;;12.10;1.00;;;;;;5054659;28;20539;-72
2022/11/02 02:53:34;;;;;;;3.73;1.90;;;12.10;1.00;;;;;;5053518;28;20411;-77
2022/11/02 02:56:01;;;;;;;13.27;3.00;;;12.00;1.00;;;;;;5051445;28;20407;-74
2022/11/02 02:58:37;;;;;;;4.90;2.37;;;11.80;1.00;;;;;;5053176;28;20400;-77
2022/11/02 03:01:04;;;;;;;9.40;2.27;;;11.70;1.00;;;;;;5054829;28;20372;-76
2022/11/02 03:03:33;;;;;;;2.17;1.97;;;11.60;8.70;;;;;;5054043;28;20475;-77
2022/11/02 03:06:24;;;;;;;8.60;2.33;;;11.50;22.90;;;;;;5053686;28;20479;-78
2022/11/02 03:09:04;;;;;;;7.40;2.97;;;11.50;22.60;;;;;;5053326;28;20437;-73
2022/11/02 03:11:32;;;;;;;8.20;2.33;;;11.50;51.80;;;;;;5054172;28;20413;-77
2022/11/02 03:14:25;;;;;;;16.33;2.60;;;11.50;46.90;;;;;;5052347;28;20912;-78
2022/11/02 03:17:25;;;;;;;5.67;2.80;;;11.40;54.20;;;;;;5053508;28;20823;-72
2022/11/02 03:20:20;;;;;;;8.80;2.40;;;11.40;91.20;;;;;;5016646;28;20400;-75
2022/11/02 03:22:51;;;;;;;9.50;3.10;;;11.40;92.40;;;;;;5053260;28;20422;-71
2022/11/02 03:25:19;;;;;;;5.10;2.90;;;11.40;93.60;;;;;;5052941;28;20411;-81
2022/11/02 03:28:06;;;;;;;10.33;2.30;;;11.30;99.90;;;;;;5053055;28;20425;-81
2022/11/02 03:30:38;;;;;;;5.80;2.40;;;11.30;99.50;;;;;;5053733;28;20456;-72
2022/11/02 03:33:07;;;;;;;2.67;1.80;;;11.30;99.90;;;;;;5052758;28;20408;-81
2022/11/02 03:35:46;;;;;;;11.43;3.20;;;11.20;99.90;;;;;;5052729;28;20433;-82
2022/11/02 03:38:18;;;;;;;3.37;2.40;;;11.20;99.90;;;;;;5052798;28;20407;-79
2022/11/02 03:40:47;;;;;;;4.70;2.10;;;11.20;99.90;;;;;;5053554;28;20727;-73
2022/11/02 03:43:14;;;;;;;9.27;2.37;;;11.20;99.90;;;;;;5053604;28;20428;-80
2022/11/02 03:45:45;;;;;;;4.30;2.40;;;11.20;99.90;;;;;;5052610;28;20396;-71
2022/11/02 03:48:13;;;;;;;7.10;3.23;;;11.20;99.90;;;;;;5051890;28;20533;-72
2022/11/02 03:50:45;;;;;;;7.00;2.90;;;11.20;99.90;;;;;;5052872;28;20936;-73
2022/11/02 03:53:16;;;;;;;2.20;2.00;;;11.20;99.90;;;;;;5052126;28;20802;-72
2022/11/02 03:55:50;;;;;;;6.53;2.50;;;11.20;99.90;;;;;;5052474;28;20421;-72
2022/11/02 03:58:15;;;;;;;5.53;2.63;;;11.20;99.90;;;;;;5052634;28;20924;-71
2022/11/02 04:01:08;;;;;;;8.50;3.67;;;11.30;99.90;;;;;;5053514;28;20462;-80
2022/11/02 04:03:41;;;;;;;2.93;2.40;;;11.20;99.90;;;;;;5050348;28;20706;-80
2022/11/02 04:06:07;;;;;;;7.40;2.40;;;11.20;99.90;;;;;;5051837;28;20493;-81
2022/11/02 04:08:41;;;;;;;2.43;2.23;;;11.30;99.90;;;;;;5051975;28;20500;-79
2022/11/02 04:16:35;;;;;;;9.50;1.90;;;11.20;99.90;;;;;;5053472;28;20383;-79
2022/11/02 04:27:13;;;;;;;5.67;2.60;;;11.20;99.90;;;;;;5052190;28;20481;-71
2022/11/02 04:29:39;;;;;;;4.07;2.30;;;11.20;99.90;;;;;;5051210;28;20431;-72
2022/11/02 04:32:04;;;;;;;5.40;2.30;;;11.20;99.90;;;;;;5053186;28;20578;-72
2022/11/02 04:34:30;;;;;;;2.90;2.47;;;11.20;99.90;;;;;;5052156;28;20632;-72
2022/11/02 04:36:56;;;;;;;4.67;2.20;;;11.20;99.90;;;;;;5053042;28;20179;-79
2022/11/02 04:39:21;;;;;;;5.47;2.50;;;11.20;99.90;;;;;;5052106;28;20178;-73
2022/11/02 04:41:47;;;;;;;12.67;2.20;;;11.20;99.90;;;;;;5052308;28;20639;-77
2022/11/02 04:44:14;;;;;;;8.30;2.83;;;11.20;99.90;;;;;;5051728;28;20219;-72
2022/11/02 04:46:41;;;;;;;6.10;2.07;;;11.20;99.90;;;;;;5051334;28;20194;-72
2022/11/02 04:49:07;;;;;;;7.33;2.60;;;11.20;99.90;;;;;;5051793;28;20816;-72
2022/11/02 04:51:34;;;;;;;9.07;2.93;;;11.20;99.90;;;;;;5052846;28;20947;-75
2022/11/02 04:54:00;;;;;;;3.00;1.97;;;11.30;99.90;;;;;;5050862;28;20388;-79
2022/11/02 04:56:27;;;;;;;4.37;1.90;;;11.20;99.90;;;;;;5051498;28;20404;-74
2022/11/02 04:58:55;;;;;;;4.60;2.37;;;11.30;99.90;;;;;;5050779;28;20408;-74
2022/11/02 05:01:23;;;;;;;4.90;2.00;;;11.30;99.90;;;;;;5052288;28;20405;-75
2022/11/02 05:03:50;;;;;;;5.57;2.40;;;11.30;99.90;;;;;;5051844;28;20423;-76
2022/11/02 05:06:17;;;;;;;5.83;2.23;;;11.30;99.90;;;;;;5052073;28;20520;-72
2022/11/02 05:08:43;;;;;;;6.10;3.10;;;11.40;99.90;;;;;;5050641;28;20408;-76
2022/11/02 05:11:10;;;;;;;8.17;2.30;;;11.50;99.90;;;;;;5052864;28;20375;-75
2022/11/02 05:13:37;;;;;;;8.53;2.93;;;11.50;99.90;;;;;;5052267;28;20756;-81
2022/11/02 05:16:03;;;;;;;3.53;2.83;;;11.50;99.90;;;;;;5052585;28;20384;-73
2022/11/02 05:18:29;;;;;;;14.10;2.13;;;11.50;99.90;;;;;;5052003;28;20491;-72
2022/11/02 05:20:57;;;;;;;4.00;2.97;;;11.50;99.90;;;;;;5056325;28;20383;-71
2022/11/02 05:23:23;;;;;;;6.10;2.20;;;11.50;99.90;;;;;;5056110;28;20397;-74
2022/11/02 05:25:54;;;;;;;3.13;1.97;;;11.60;99.90;;;;;;5070259;28;20420;-75
2022/11/02 05:28:20;;;;;;;3.87;2.07;;;11.60;99.90;;;;;;5055192;28;20392;-74
2022/11/02 05:30:46;;;;;;;5.43;2.27;;;11.50;99.90;;;;;;5055763;28;20422;-74
2022/11/02 05:33:11;;;;;;;7.07;2.30;;;11.60;99.80;;;;;;5056152;28;20379;-71
2022/11/02 05:35:37;;;;;;;4.47;2.00;;;11.50;99.90;;;;;;5054113;28;20191;-74
2022/11/02 05:38:02;;;;;;;9.17;2.47;;;11.50;99.90;;;;;;5054704;28;20509;-77
2022/11/02 05:40:28;;;;;;;8.30;2.43;;;11.50;99.90;;;;;;5056024;28;20636;-75
2022/11/02 05:43:00;;;;;;;6.37;2.97;;;11.60;93.60;;;;;;5055949;28;20546;-77
2022/11/02 05:45:26;;;;;;;3.70;2.33;;;11.50;93.60;;;;;;5054789;28;20185;-77
2022/11/02 05:47:52;;;;;;;5.33;2.40;;;11.50;99.80;;;;;;5054918;28;20398;-73
2022/11/02 05:50:18;;;;;;;10.00;2.57;;;11.50;92.60;;;;;;5054867;28;20866;-78
2022/11/02 05:52:44;;;;;;;6.03;2.67;;;11.50;98.00;;;;;;5054048;28;20455;-78
2022/11/02 05:55:10;;;;;;;12.53;2.80;;;11.50;95.00;;;;;;5054045;28;20429;-77
2022/11/02 05:57:36;;;;;;;7.10;2.40;;;11.60;92.80;;;;;;5055207;28;20653;-77
2022/11/02 06:00:04;;;;;;;9.80;2.80;;;11.50;92.90;;;;;;5055453;28;20179;-73
2022/11/02 06:02:29;;;;;;;7.50;2.73;;;11.50;93.50;;;;;;5053937;28;20486;-76
2022/11/02 06:04:55;;;;;;;4.10;2.37;;;11.50;92.90;;;;;;5052403;28;21042;-76
2022/11/02 06:07:21;;;;;;;13.83;3.40;;;11.50;92.90;;;;;;5057793;28;20195;-76
2022/11/02 06:09:46;;;;;;;5.00;2.60;;;11.40;92.60;;;;;;5054699;28;20203;-75
2022/11/02 06:12:12;;;;;;;5.30;2.50;;;11.40;92.90;;;;;;5055439;28;20171;-73
2022/11/02 06:14:38;;;;;;;3.30;1.90;;;11.40;92.70;;;;;;5053976;28;20190;-72
2022/11/02 06:17:03;;;;;;;5.93;3.50;;;11.30;93.00;;;;;;5054373;28;20232;-73
2022/11/02 06:19:29;;;;;;;6.43;3.17;;;11.40;92.50;;;;;;5055350;28;20171;-74
2022/11/02 06:21:55;;;;;;;5.73;2.47;;;11.40;99.50;;;;;;5055208;28;20246;-77
2022/11/02 06:24:21;;;;;;;7.17;2.93;;;11.40;92.60;;;;;;5053195;28;20167;-73
2022/11/02 06:26:47;;;;;;;6.13;2.80;;;11.30;99.90;;;;;;5053323;28;20460;-73
2022/11/02 06:29:13;;;;;;;3.83;2.37;;;11.30;92.50;;;;;;5054770;28;20202;-73
2022/11/02 06:31:39;;;;;;;3.33;2.27;;;11.30;99.00;;;;;;5054913;28;20879;-74
2022/11/02 06:34:05;;;;;;;3.40;2.47;;;11.30;92.70;;;;;;5053390;28;20376;-74
2022/11/02 06:36:31;;;;;;;4.70;2.93;;;11.30;92.90;;;;;;5053785;28;20277;-76
2022/11/02 06:38:56;;;;;;;5.80;2.50;;;11.30;99.90;;;;;;5054874;28;20651;-76
2022/11/02 06:41:22;;;;;;;2.50;2.30;;;11.40;92.60;;;;;;5054662;28;20167;-73
2022/11/02 06:43:47;;;;;;;5.53;2.87;;;11.40;99.90;;;;;;5053718;28;20163;-77
2022/11/02 06:46:13;;;;;;;4.20;2.47;;;11.40;99.90;;;;;;5053317;28;20604;-76
2022/11/02 06:48:39;;;;;;;4.23;2.33;;;11.40;99.90;;;;;;5054539;28;20194;-76
2022/11/02 06:51:05;;;;;;;3.10;2.20;;;11.40;99.90;;;;;;5054329;28;20253;-73
2022/11/02 06:53:31;;;;;;;9.77;2.50;;;11.40;92.60;;;;;;5053772;28;20172;-74
2022/11/02 06:55:58;;;;;;;4.63;2.30;;;11.50;96.40;;;;;;5067402;28;20420;-75
2022/11/02 06:58:25;;;;;;;7.90;3.00;;;11.50;99.90;;;;;;5034234;28;20475;-77
2022/11/02 07:00:59;;;;;;;5.00;2.30;;;11.50;99.90;;;;;;5034602;28;20487;-77
2022/11/02 07:03:25;;;;;;;9.20;3.03;;;11.50;93.40;;;;;;5034082;28;20420;-74
2022/11/02 07:05:52;;;;;;;23.07;3.43;;;11.50;92.60;;;;;;5043539;28;20932;-77
2022/11/02 07:08:18;;;;;;;4.60;2.60;;;11.50;99.90;;;;;;5053087;28;20411;-74
2022/11/02 07:10:45;;;;;;;4.63;2.40;;;11.50;92.70;;;;;;5053748;28;20799;-76
2022/11/02 07:13:10;;;;;;;4.97;2.13;;;11.50;92.80;;;;;;5054341;28;20364;-73
2022/11/02 07:15:36;;;;;;;5.30;2.33;;;11.60;93.70;;;;;;5052575;28;20772;-76
2022/11/02 07:18:02;;;;;;;7.97;3.13;;;11.50;92.60;;;;;;5052662;28;20174;-76
2022/11/02 07:20:29;;;;;;;3.30;2.37;;;11.50;92.60;;;;;;5054016;28;20177;-75
2022/11/02 07:22:59;;;;;;;4.17;2.27;;;11.50;92.60;;;;;;5053189;28;20407;-77
2022/11/02 07:25:26;;;;;;;6.40;2.57;;;11.60;92.60;;;;;;5052690;28;20902;-76
2022/11/02 07:27:52;;;;;;;4.40;2.13;;;11.60;92.60;;;;;;5052742;28;20411;-74
2022/11/02 07:30:18;;;;;;;4.00;3.00;;;11.60;92.60;;;;;;5053794;28;20448;-74
2022/11/02 07:32:45;;;;;;;4.27;2.20;;;11.70;92.70;;;;;;5053104;28;20490;-76
2022/11/02 07:35:12;;;;;;;6.80;2.83;;;11.70;92.60;;;;;;5052707;28;20857;-76
2022/11/02 07:37:39;;;;;;;2.30;2.07;;;11.70;92.60;;;;;;5052656;28;20429;-76
2022/11/02 07:40:06;;;;;;;3.43;2.13;;;11.80;92.70;;;;;;5051740;28;20574;-76
2022/11/02 07:42:32;;;;;;;2.90;2.60;;;11.70;91.70;;;;;;5053029;28;20892;-75
2022/11/02 07:44:58;;;;;;;6.40;1.90;;;11.80;92.50;;;;;;5052298;28;20402;-76
2022/11/02 07:47:24;;;;;;;3.20;2.50;;;11.80;92.70;;;;;;5052572;28;20460;-76
2022/11/02 07:49:50;;;;;;;12.10;3.70;;;11.80;89.40;;;;;;5052915;28;20671;-76
2022/11/02 07:52:16;;;;;;;3.40;2.57;;;11.80;91.60;;;;;;5053441;28;20459;-75
2022/11/02 07:54:41;;;;;;;7.63;2.60;;;11.80;92.70;;;;;;5052490;28;20194;-77
2022/11/02 07:57:07;;;;;;;4.87;1.97;;;11.80;92.10;;;;;;5052526;28;20241;-73
2022/11/02 07:59:33;;;;;;;3.10;2.03;;;11.90;87.10;;;;;;5053407;28;20237;-77
2022/11/02 08:02:01;;;;;;;7.23;2.00;;;11.90;92.70;;;;;;5053138;28;20194;-77
2022/11/02 08:04:27;;;;;;;6.37;2.80;;;12.00;92.50;;;;;;5049629;28;20221;-77
2022/11/02 08:06:53;;;;;;;13.77;2.27;;;12.00;92.40;;;;;;5043587;28;20425;-77
2022/11/02 08:09:18;;;;;;;7.07;2.57;;;12.00;92.50;;;;;;5053669;28;20233;-76
2022/11/02 08:11:44;;;;;;;2.43;2.13;;;12.00;84.20;;;;;;5052440;28;20843;-73
2022/11/02 08:14:10;;;;;;;6.30;2.10;;;12.00;90.60;;;;;;5052348;28;20682;-73
2022/11/02 08:16:36;;;;;;;6.70;2.20;;;12.00;90.10;;;;;;5053291;28;20240;-77
2022/11/02 08:19:02;;;;;;;2.00;1.90;;;12.00;89.70;;;;;;5053215;28;20684;-76
2022/11/02 08:21:27;;;;;;;6.13;2.80;;;12.00;83.80;;;;;;5051758;28;20428;-72
2022/11/02 08:23:54;;;;;;;2.43;2.23;;;12.00;89.70;;;;;;5052664;28;20190;-72
2022/11/02 08:26:20;;;;;;;3.93;2.03;;;12.10;90.90;;;;;;5053172;28;20175;-73
2022/11/02 08:28:45;;;;;;;2.80;1.67;;;12.10;78.20;;;;;;5053059;28;20414;-76
2022/11/02 08:31:16;;;;;;;5.53;2.10;;;12.20;75.30;;;;;;5052064;28;20439;-76
2022/11/02 08:33:43;;;;;;;4.30;2.50;;;12.30;70.50;;;;;;5050969;28;20195;-74
2022/11/02 08:36:09;;;;;;;7.23;2.20;;;12.30;65.70;;;;;;5052995;28;20422;-72
2022/11/02 08:38:36;;;;;;;4.20;1.90;;;12.40;67.20;;;;;;5067984;28;20408;-75
2022/11/02 08:41:01;;;;;;;7.70;2.57;;;12.50;43.20;;;;;;5050271;28;20432;-76
2022/11/02 08:43:27;;;;;;;4.87;2.13;;;12.50;42.20;;;;;;5051295;28;20844;-72
2022/11/02 08:45:58;;;;;;;4.47;2.20;;;12.50;63.60;;;;;;5052046;28;20478;-76
2022/11/02 08:48:24;;;;;;;7.80;2.33;;;12.50;56.90;;;;;;5052851;28;20760;-73
2022/11/02 08:50:50;;;;;;;3.10;2.10;;;12.50;56.60;;;;;;5051215;28;20457;-78
2022/11/02 08:53:16;;;;;;;1.50;1.40;;;12.50;59.80;;;;;;5051826;28;20593;-73
2022/11/02 08:55:41;;;;;;;3.33;1.97;;;12.50;45.10;;;;;;5055312;28;20213;-76
2022/11/02 08:58:07;;;;;;;3.33;2.27;;;12.50;50.50;;;;;;5056806;28;20390;-76
2022/11/02 09:00:34;;;;;;;2.23;1.53;;;12.50;43.50;;;;;;5056422;28;20248;-74
2022/11/02 09:03:05;;;;;;;2.80;2.10;;;12.50;41.20;;;;;;5056377;28;20425;-75
2022/11/02 09:05:34;;;;;;;6.33;2.77;;;12.60;52.90;;;;;;5053194;28;21317;-72
2022/11/02 09:08:03;;;;;;;4.90;2.53;;;12.80;57.30;;;;;;5055766;28;20424;-75
2022/11/02 09:10:31;;;;;;;2.43;1.70;;;12.80;35.60;;;;;;5052610;28;20440;-72
2022/11/02 09:13:01;;;;;;;5.70;2.20;;;12.90;28.40;;;;;;5056103;28;20380;-73
2022/11/02 09:15:27;;;;;;;2.13;2.03;;;12.90;33.00;;;;;;5055238;28;20528;-73
2022/11/02 09:17:53;;;;;;;8.60;2.30;;;13.00;32.90;;;;;;5056421;28;20523;-74
2022/11/02 09:20:19;;;;;;;3.97;1.70;;;13.00;1.00;;;;;;5055153;28;20486;-74
2022/11/02 09:22:45;;;;;;;5.93;2.13;;;13.00;1.00;;;;;;5056250;28;20171;-73
2022/11/02 09:25:12;;;;;;;2.20;1.97;;;13.10;4.80;;;;;;5055076;28;20424;-76
2022/11/02 09:27:39;;;;;;;2.70;2.17;;;13.20;25.70;;;;;;5056236;28;20401;-74
2022/11/02 09:30:05;;;;;;;6.60;1.93;;;13.30;1.00;;;;;;5054928;28;20434;-76
2022/11/02 09:32:34;;;;;;;2.43;1.97;;;13.30;1.00;;;;;;5070371;28;20408;-73
2022/11/02 09:35:02;;;;;;;4.30;2.30;;;13.30;1.00;;;;;;5053936;28;20423;-77
2022/11/02 09:37:27;;;;;;;8.87;2.23;;;13.20;1.00;;;;;;5055735;28;20922;-72
2022/11/02 09:39:54;;;;;;;3.13;2.00;;;13.30;1.00;;;;;;5054712;28;20408;-76
2022/11/02 09:42:54;;;;;;;6.30;2.33;;;13.20;1.00;;;;;;5055450;28;20187;-74
2022/11/02 09:45:20;;;;;;;2.60;1.33;;;13.00;1.00;;;;;;5054348;28;20418;-75
2022/11/02 09:47:59;;;;;;;3.53;1.70;;;12.80;1.00;;;;;;5055685;28;20408;-75
2022/11/02 09:50:43;;;;;;;4.03;1.70;;;12.80;1.00;;;;;;5053864;28;20478;-76
2022/11/02 09:53:16;;;;;;;2.63;2.13;;;12.70;1.00;;;;;;5055636;28;20402;-78
2022/11/02 09:55:50;;;;;;;4.33;2.23;;;12.80;3.20;;;;;;5034604;28;20952;-75
2022/11/02 09:58:20;;;;;;;5.27;2.20;;;12.70;1.00;;;;;;5039539;28;20417;-76
2022/11/02 10:00:48;;;;;;;8.50;2.00;;;12.80;1.00;;;;;;5045824;28;20883;-75
2022/11/02 10:03:38;;;;;;;2.70;2.10;;;12.80;1.00;;;;;;5055289;28;20463;-72
2022/11/02 10:06:10;;;;;;;2.83;2.13;;;12.90;1.00;;;;;;5053801;28;20431;-73
2022/11/02 10:09:03;;;;;;;4.20;2.13;;;13.00;1.00;;;;;;5054021;28;20416;-74
2022/11/02 10:12:06;;;;;;;5.07;2.13;;;13.00;1.00;;;;;;5051219;28;20450;-75
2022/11/02 10:14:37;;;;;;;3.83;1.80;;;13.00;1.00;;;;;;5054769;28;20360;-76
2022/11/02 10:17:16;;;;;;;2.50;2.00;;;13.10;1.00;;;;;;5055001;28;20559;-73
2022/11/02 10:19:48;;;;;;;2.23;1.73;;;13.00;1.00;;;;;;5054177;28;20433;-76
2022/11/02 10:22:15;;;;;;;3.43;1.43;;;13.00;1.00;;;;;;5053882;28;20385;-74
2022/11/02 10:24:44;;;;;;;2.70;1.70;;;12.90;1.00;;;;;;5054474;28;20368;-73
2022/11/02 10:27:28;;;;;;;8.33;1.60;;;12.80;1.00;;;;;;5054395;28;20479;-74
2022/11/02 10:30:15;;;;;;;4.13;2.07;;;12.80;1.00;;;;;;5053803;28;20451;-75
2022/11/02 10:32:43;;;;;;;2.60;1.57;;;12.70;1.00;;;;;;5054742;28;20398;-74
2022/11/02 10:35:17;;;;;;;2.37;1.77;;;12.60;10.20;;;;;;5052295;28;20425;-73
2022/11/02 10:37:55;;;;;;;2.60;1.40;;;12.50;24.40;;;;;;5054735;28;20468;-74
2022/11/02 10:40:42;;;;;;;5.33;2.00;;;12.60;29.40;;;;;;5053938;28;20429;-74
2022/11/02 10:43:38;;;;;;;3.63;1.83;;;12.70;17.50;;;;;;5054559;28;20414;-75
2022/11/02 10:46:37;;;;;;;4.67;1.90;;;12.90;16.10;;;;;;5053863;28;20431;-75
2022/11/02 10:49:18;;;;;;;6.03;2.10;;;13.00;1.00;;;;;;5053318;28;20471;-76
2022/11/02 10:51:43;;;;;;;4.37;1.93;;;13.10;1.00;;;;;;5053655;28;20403;-76
2022/11/02 10:54:13;;;;;;;2.77;1.70;;;13.10;1.00;;;;;;5053519;28;20426;-74
2022/11/02 10:56:40;;;;;;;4.93;1.60;;;13.10;1.00;;;;;;5053994;28;20187;-75
2022/11/02 10:59:14;;;;;;;13.40;2.00;;;13.20;1.00;;;;;;5053795;28;20407;-70
2022/11/02 11:02:13;;;;;;;4.83;2.00;;;13.30;1.00;;;;;;5052024;28;20406;-75
2022/11/02 11:04:40;;;;;;;2.57;1.33;;;13.40;1.00;;;;;;5041584;28;20466;-75
2022/11/02 11:07:24;;;;;;;7.43;2.60;;;13.30;1.00;;;;;;5054325;28;20392;-73
2022/11/02 11:09:55;;;;;;;6.33;1.37;;;13.20;1.00;;;;;;5053970;28;20423;-77
2022/11/02 11:12:32;;;;;;;5.23;1.47;;;13.10;1.00;;;;;;5052467;28;20468;-76
2022/11/02 11:15:01;;;;;;;3.73;1.37;;;13.10;1.00;;;;;;5053159;28;20765;-73
2022/11/02 11:17:38;;;;;;;2.70;1.40;;;13.00;1.00;;;;;;5053354;28;20434;-75
2022/11/02 11:20:23;;;;;;;2.33;1.50;;;12.80;1.00;;;;;;5052163;28;20448;-75
2022/11/02 11:23:08;;;;;;;6.63;1.30;;;12.70;1.00;;;;;;5052411;28;20433;-76
2022/11/02 11:25:34;;;;;;;3.23;1.50;;;12.50;1.00;;;;;;5053082;28;20444;-76
2022/11/02 11:28:22;;;;;;;8.73;2.10;;;12.40;1.00;;;;;;5052809;28;20409;-77
2022/11/02 11:31:10;;;;;;;5.33;2.33;;;12.40;1.00;;;;;;5053909;28;20202;-76
2022/11/02 11:33:44;;;;;;;1.80;1.60;;;12.40;1.00;;;;;;5034589;28;20408;-81
2022/11/02 11:36:19;;;;;;;2.70;1.60;;;12.30;1.00;;;;;;5053682;28;20388;-76
2022/11/02 11:38:48;;;;;;;5.93;1.80;;;12.20;1.00;;;;;;5053297;28;20391;-74
2022/11/02 11:41:16;;;;;;;4.37;1.33;;;12.10;1.00;;;;;;5052051;28;20823;-76
2022/11/02 11:43:43;;;;;;;3.63;1.53;;;12.00;1.00;;;;;;5050769;28;20464;-75
2022/11/02 11:46:12;;;;;;;5.33;1.60;;;12.00;1.00;;;;;;5052949;28;20794;-74
2022/11/02 11:48:40;;;;;;;2.97;1.37;;;12.00;1.00;;;;;;5053514;28;20392;-76
2022/11/02 11:51:26;;;;;;;10.10;1.73;;;12.00;1.00;;;;;;5053820;28;20536;-76
2022/11/02 11:54:13;;;;;;;1.80;1.70;;;12.00;1.00;;;;;;5051368;28;20395;-76
2022/11/02 11:56:39;;;;;;;4.20;1.60;;;12.00;1.00;;;;;;5053063;28;20506;-77
2022/11/02 11:59:15;;;;;;;6.77;2.10;;;11.80;4.20;;;;;;5052248;28;20491;-78
2022/11/02 12:01:41;;;;;;;6.27;1.97;;;11.60;25.80;;;;;;5052506;28;20253;-80
2022/11/02 12:04:07;;;;;;;2.80;1.83;;;11.50;60.00;;;;;;5051119;28;20536;-74
2022/11/02 12:06:55;;;;;;;4.07;2.17;;;11.30;92.10;;;;;;5052732;28;20340;-72
2022/11/02 12:09:42;;;;;;;4.53;2.33;;;11.10;92.40;;;;;;5053494;28;20547;-82
2022/11/02 12:12:26;;;;;;;2.63;1.70;;;10.90;93.10;;;;;;5053211;28;20902;-78
2022/11/02 12:15:32;;;;;;;2.07;1.87;;;10.90;99.90;;;;;;5051377;28;20416;-82
2022/11/02 12:18:06;;;;;;;4.73;1.67;;;10.80;99.90;;;;;;5036128;28;20938;-72
2022/11/02 12:20:50;;;;;;;2.47;1.47;;;10.70;99.90;;;;;;5052257;28;20927;-78
2022/11/02 12:23:45;;;;;;;9.17;1.83;;;10.60;99.90;;;;;;5052262;28;20400;-71
2022/11/02 12:26:19;;;;;;;3.50;1.80;;;10.60;99.90;;;;;;5053286;28;20398;-79
2022/11/02 12:28:55;;;;;;;6.67;2.10;;;10.60;99.90;;;;;;5055603;28;20979;-76
2022/11/02 12:31:37;;;;;;;1.77;1.67;;;10.50;99.90;;;;;;5055841;28;20441;-71
2022/11/02 12:34:21;;;;;;;3.97;1.80;;;10.40;99.90;;;;;;5055335;28;20795;-74
2022/11/02 12:36:56;;;;;;;4.90;1.67;;;10.40;99.90;;;;;;5056796;28;20432;-75
2022/11/02 12:39:43;;;;;;;2.33;1.53;;;10.30;99.90;;;;;;5057101;28;20443;-77
2022/11/02 12:42:18;;;;;;;2.00;1.57;;;10.30;99.90;;;;;;5057132;28;20401;-77
2022/11/02 12:44:48;;;;;;;2.10;1.57;;;10.30;99.90;;;;;;5054748;28;20932;-76
2022/11/02 12:47:40;;;;;;;4.93;1.73;;;10.10;99.90;;;;;;5056873;28;20574;-73
2022/11/02 12:50:16;;;;;;;5.40;2.30;;;10.10;99.90;;;;;;5056745;28;20448;-74
2022/11/02 12:53:09;;;;;;;1.93;1.70;;;10.10;99.90;;;;;;5055269;28;21326;-76
2022/11/02 12:55:40;;;;;;;3.10;1.73;;;10.20;99.90;;;;;;5035907;28;20422;-72
2022/11/02 12:58:23;;;;;;;3.93;2.07;;;10.30;99.90;;;;;;5035656;28;20413;-77
2022/11/02 13:00:59;;;;;;;6.17;1.80;;;10.20;99.90;;;;;;5036654;28;20405;-72
2022/11/02 13:03:29;;;;;;;2.40;1.83;;;10.10;99.90;;;;;;5041876;28;20443;-72
2022/11/02 13:06:01;;;;;;;3.90;1.87;;;10.10;99.90;;;;;;5071279;28;20429;-76
2022/11/02 13:08:53;;;;;;;3.10;1.43;;;10.20;99.90;;;;;;5056036;28;20426;-71
2022/11/02 13:11:29;;;;;;;2.83;1.50;;;10.20;99.90;;;;;;5054576;28;20530;-73
2022/11/02 13:13:57;;;;;;;2.77;1.70;;;10.20;99.90;;;;;;5054583;28;20425;-77
2022/11/02 13:16:50;;;;;;;3.47;1.90;;;10.30;99.90;;;;;;5053150;28;20979;-72
2022/11/02 13:19:42;;;;;;;9.63;2.33;;;10.40;99.90;;;;;;5048838;28;20424;-77
2022/11/02 13:22:10;;;;;;;10.60;2.33;;;10.40;99.90;;;;;;5036511;28;20413;-77
2022/11/02 13:24:46;;;;;;;2.30;1.43;;;10.40;99.90;;;;;;5045050;28;20432;-72